createdAt,value
2023-07-17T03:40:15.172Z,100365.28
2023-07-17T03:43:18.468Z,100365.28
2023-07-17T03:46:21.415Z,100372.37
2023-07-17T03:49:24.111Z,100369.56
2023-07-17T03:52:26.537Z,100376.25
2023-07-17T03:55:29.310Z,100358.59
2023-07-17T03:58:31.743Z,100366.97
2023-07-17T04:01:35.488Z,100375.38
2023-07-17T04:04:38.163Z,100372.53
2023-07-17T04:07:40.483Z,100376.19
2023-07-17T04:10:43.446Z,100379.94
2023-07-17T04:13:45.893Z,100384.53
2023-07-17T04:16:48.632Z,100383.19
2023-07-17T04:19:51.184Z,100382.41
2023-07-17T04:22:54.371Z,100376.25
2023-07-17T04:25:57.212Z,100380.47
2023-07-17T04:29:00.078Z,100379.66
2023-07-17T04:32:02.608Z,100383.22
2023-07-17T04:35:06.185Z,100382.41
2023-07-17T04:38:08.879Z,100387.69
2023-07-17T04:41:11.440Z,100389.53
2023-07-17T04:44:14.557Z,100396.59
2023-07-17T04:47:17.259Z,100390.59
2023-07-17T04:50:19.927Z,100387.22
2023-07-17T04:53:22.746Z,100395.28
2023-07-17T04:56:25.573Z,100386.56
2023-07-17T04:59:28.661Z,100380.91
2023-07-17T05:02:31.279Z,100390.94
2023-07-17T05:05:33.860Z,100387.91
2023-07-17T05:08:36.404Z,100394.69
2023-07-17T05:11:40.388Z,100393.06
2023-07-17T05:14:42.868Z,100392.69
2023-07-17T05:17:46.158Z,100396.81
2023-07-17T05:20:51.175Z,100400.72
2023-07-17T05:23:54.145Z,100393.47
2023-07-17T05:26:56.855Z,100394.56
2023-07-17T05:29:59.636Z,100399.31
2023-07-17T05:33:02.994Z,100389.09
2023-07-17T05:36:05.986Z,100390.44
2023-07-17T05:39:08.845Z,100396.53
2023-07-17T05:42:11.549Z,100397.31
2023-07-17T05:45:14.188Z,100396.37
2023-07-17T05:48:17.109Z,100384.06
2023-07-17T05:51:21.912Z,100387.75
2023-07-17T05:54:24.921Z,100391.94
2023-07-17T05:57:27.434Z,100393.81
2023-07-17T06:00:30.754Z,100388.88
2023-07-17T06:03:33.825Z,100389.03
2023-07-17T06:06:36.292Z,100390.25
2023-07-17T06:09:38.960Z,100403.06
2023-07-17T06:12:41.484Z,100399.37
2023-07-17T06:15:44.572Z,100405.56
2023-07-17T06:18:47.013Z,100400.81
2023-07-17T06:21:49.844Z,100400.41
2023-07-17T06:24:52.310Z,100394.69
2023-07-17T06:27:54.972Z,100393.16
2023-07-17T06:30:57.819Z,100401.50
2023-07-17T06:34:00.527Z,100397.47
2023-07-17T06:37:03.035Z,100406.37
2023-07-17T06:40:07.033Z,100403.78
2023-07-17T06:43:12.654Z,100404.28
2023-07-17T06:46:18.373Z,100396.50
2023-07-17T06:49:23.881Z,100390.84
2023-07-17T06:52:27.789Z,100401.84
2023-07-17T06:55:30.653Z,100394.91
2023-07-17T06:58:33.429Z,100393.88
2023-07-17T07:01:35.802Z,100390.41
2023-07-17T07:04:38.547Z,100391.28
2023-07-17T07:07:43.201Z,100383.84
2023-07-17T07:10:45.997Z,100386.72
2023-07-17T07:13:48.341Z,100385.97
2023-07-17T07:16:51.004Z,100378.44
2023-07-17T07:19:53.505Z,100385.97
2023-07-17T07:22:56.302Z,100388.63
2023-07-17T07:25:58.699Z,100386.28
2023-07-17T07:29:01.644Z,100392.13
2023-07-17T07:32:04.479Z,100382.78
2023-07-17T07:35:07.796Z,100388.59
2023-07-17T07:38:10.218Z,100385.06
2023-07-17T07:41:13.031Z,100376.22
2023-07-17T07:44:15.471Z,100386.31
2023-07-17T07:47:18.263Z,100371.94
2023-07-17T07:50:20.823Z,100381.34
2023-07-17T07:53:23.531Z,100381.94
2023-07-17T07:56:26.056Z,100373.00
2023-07-17T07:59:29.071Z,100379.69
2023-07-17T08:02:31.687Z,100379.66
2023-07-17T08:05:34.458Z,100387.56
2023-07-17T08:08:36.999Z,100380.25
2023-07-17T08:11:40.879Z,100379.34
2023-07-17T08:14:43.372Z,100379.25
2023-07-17T08:17:46.510Z,100375.75
2023-07-17T08:20:48.984Z,100375.75
2023-07-17T08:23:51.953Z,100378.84
2023-07-17T08:26:56.115Z,100374.06
2023-07-17T08:29:58.964Z,100378.44
2023-07-17T08:33:01.525Z,100372.00
2023-07-17T08:36:04.836Z,100376.97
2023-07-17T08:39:07.262Z,100369.94
2023-07-17T08:42:11.786Z,100372.84
2023-07-17T08:45:15.331Z,100374.44
2023-07-17T08:48:18.234Z,100377.22
2023-07-17T08:51:22.569Z,100384.03
2023-07-17T08:57:32.417Z,100384.09
2023-07-17T09:00:35.466Z,100383.50
2023-07-17T09:03:38.068Z,100377.44
2023-07-17T09:06:40.936Z,100377.78
2023-07-17T09:09:43.600Z,100371.63
2023-07-17T09:12:57.978Z,100376.34
2023-07-17T09:16:14.192Z,100382.94
2023-07-17T09:19:16.962Z,100381.75
2023-07-17T09:22:19.991Z,100376.22
2023-07-17T09:25:28.381Z,100367.72
2023-07-17T09:28:31.324Z,100370.16
2023-07-17T09:31:34.104Z,100373.84
2023-07-17T09:34:36.619Z,100373.25
2023-07-17T09:37:44.476Z,100369.84
2023-07-17T09:40:48.104Z,100372.84
2023-07-17T09:44:07.118Z,100366.59
2023-07-17T09:47:10.240Z,100367.13
2023-07-17T09:50:15.665Z,100371.56
2023-07-17T09:53:20.374Z,100361.22
2023-07-17T09:56:24.524Z,100361.47
2023-07-17T09:59:33.061Z,100367.19
2023-07-17T10:02:58.609Z,100365.34
2023-07-17T10:06:02.238Z,100362.41
2023-07-17T10:09:08.172Z,100360.97
2023-07-17T10:12:11.312Z,100365.50
2023-07-17T10:15:15.769Z,100346.53
2023-07-17T10:18:23.435Z,100349.72
2023-07-17T10:21:25.832Z,100354.09
2023-07-17T10:24:28.489Z,100342.78
2023-07-17T10:27:41.909Z,100348.97
2023-07-17T10:30:49.705Z,100338.47
2023-07-17T10:34:01.115Z,100338.47
2023-07-17T10:37:04.703Z,100331.16
2023-07-17T10:40:08.951Z,100321.44
2023-07-17T10:43:19.878Z,100322.72
2023-07-17T10:46:33.399Z,100304.06
2023-07-17T10:49:36.128Z,100297.22
2023-07-17T10:52:38.522Z,100297.47
2023-07-17T10:55:41.937Z,100294.69
2023-07-17T10:58:50.014Z,100300.03
2023-07-17T11:02:01.726Z,100293.16
2023-07-17T11:05:05.129Z,100297.19
2023-07-17T11:08:09.058Z,100298.44
2023-07-17T11:11:12.323Z,100289.97
2023-07-17T11:14:15.154Z,100286.25
2023-07-17T11:17:17.694Z,100285.16
2023-07-17T11:20:20.416Z,100278.63
2023-07-17T11:23:23.772Z,100284.37
2023-07-17T11:26:33.541Z,100285.53
2023-07-17T11:29:41.759Z,100272.84
2023-07-17T11:32:44.790Z,100267.00
2023-07-17T11:35:50.807Z,100260.69
2023-07-17T11:38:58.126Z,100263.03
2023-07-17T11:42:01.519Z,100251.31
2023-07-17T11:45:06.394Z,100237.34
2023-07-17T11:48:10.448Z,100241.41
2023-07-17T11:51:13.303Z,100234.38
2023-07-17T11:54:15.776Z,100225.09
2023-07-17T11:57:18.601Z,100222.06
2023-07-17T12:00:21.307Z,100217.91
2023-07-17T12:03:25.362Z,100224.41
2023-07-17T12:06:28.005Z,100225.16
2023-07-17T12:09:30.830Z,100217.91
2023-07-17T12:12:34.393Z,100216.53
2023-07-17T12:15:38.574Z,100217.06
2023-07-17T12:18:41.020Z,100209.28
2023-07-17T12:21:44.179Z,100211.28
2023-07-17T12:24:47.177Z,100200.31
2023-07-17T12:27:50.228Z,100198.09
2023-07-17T12:30:52.629Z,100197.28
2023-07-17T12:33:55.752Z,100196.56
2023-07-17T12:36:58.124Z,100190.22
2023-07-17T12:40:01.786Z,100184.50
2023-07-17T12:43:04.557Z,100183.81
2023-07-17T12:46:07.244Z,100184.62
2023-07-17T12:49:09.719Z,100180.66
2023-07-17T12:52:12.441Z,100172.72
2023-07-17T12:55:14.956Z,100173.66
2023-07-17T12:58:19.460Z,100161.06
2023-07-17T13:01:22.342Z,100171.28
2023-07-17T13:04:25.394Z,100176.41
2023-07-17T13:07:27.946Z,100182.31
2023-07-17T13:10:31.195Z,100176.81
2023-07-17T13:13:33.614Z,100177.66
2023-07-17T13:16:36.532Z,100166.78
2023-07-17T13:19:39.085Z,100155.06
2023-07-17T13:22:41.953Z,100153.31
2023-07-17T13:25:46.233Z,100157.94
2023-07-17T13:28:49.000Z,100158.69
2023-07-17T13:31:51.471Z,100151.09
2023-07-17T13:34:54.408Z,100155.34
2023-07-17T13:37:56.981Z,100163.97
2023-07-17T13:41:02.014Z,100161.69
2023-07-17T13:44:05.063Z,100178.81
2023-07-17T13:47:08.486Z,100190.81
2023-07-17T13:50:11.388Z,100192.03
2023-07-17T13:53:15.657Z,100190.44
2023-07-17T13:59:24.851Z,100196.22
2023-07-17T14:02:27.279Z,100189.87
2023-07-17T14:05:30.009Z,100188.84
2023-07-17T14:08:32.345Z,100180.75
2023-07-17T14:11:35.186Z,100175.53
2023-07-17T14:14:37.523Z,100191.78
2023-07-17T14:17:40.282Z,100198.44
2023-07-17T14:20:42.868Z,100199.38
2023-07-17T14:23:47.411Z,100193.37
2023-07-17T14:26:50.290Z,100198.34
2023-07-17T14:29:53.027Z,100193.97
2023-07-17T14:32:55.495Z,100205.97
2023-07-17T14:35:58.276Z,100210.78
2023-07-17T14:39:00.746Z,100221.59
2023-07-17T14:42:04.486Z,100216.19
2023-07-17T14:45:07.352Z,100221.94
2023-07-17T14:48:10.171Z,100198.69
2023-07-17T14:51:13.581Z,100194.28
2023-07-17T14:54:16.345Z,100209.28
2023-07-17T14:57:18.812Z,100203.69
2023-07-17T15:00:23.461Z,100213.87
2023-07-17T15:03:26.677Z,100215.78
2023-07-17T15:06:29.835Z,100212.84
2023-07-17T15:09:32.479Z,100215.97
2023-07-17T15:12:35.701Z,100205.78
2023-07-17T15:15:38.371Z,100204.31
2023-07-17T15:18:44.651Z,100196.00
2023-07-17T15:21:47.228Z,100196.22
2023-07-17T15:24:50.099Z,100188.03
2023-07-17T15:27:52.564Z,100190.53
2023-07-17T15:30:55.509Z,100215.47
2023-07-17T15:33:59.536Z,100212.50
2023-07-17T15:37:02.372Z,100209.44
2023-07-17T15:40:05.528Z,100218.22
2023-07-17T15:43:08.075Z,100224.06
2023-07-17T15:46:10.337Z,100232.38
2023-07-17T15:49:12.905Z,100232.81
2023-07-17T15:52:15.474Z,100230.94
2023-07-17T15:55:18.134Z,100240.50
2023-07-17T15:58:20.476Z,100253.16
2023-07-17T16:01:23.232Z,100249.06
2023-07-17T16:04:26.070Z,100254.69
2023-07-17T16:07:28.621Z,100251.78
2023-07-17T16:10:31.484Z,100263.47
2023-07-17T16:13:33.827Z,100258.88
2023-07-17T16:16:36.555Z,100268.66
2023-07-17T16:19:40.243Z,100274.91
2023-07-17T16:22:42.770Z,100274.09
2023-07-17T16:25:46.012Z,100271.59
2023-07-17T16:28:48.547Z,100269.06
2023-07-17T16:31:50.825Z,100270.34
2023-07-17T16:34:53.407Z,100270.09
2023-07-17T16:37:55.705Z,100271.19
2023-07-17T16:40:58.283Z,100273.66
2023-07-17T16:44:01.000Z,100268.69
2023-07-17T16:47:04.043Z,100281.81
2023-07-17T16:50:07.136Z,100281.56
2023-07-17T16:53:10.155Z,100282.22
2023-07-17T16:56:13.625Z,100289.91
2023-07-17T16:59:22.023Z,100285.53
2023-07-17T17:02:26.150Z,100286.94
2023-07-17T17:05:28.727Z,100284.84
2023-07-17T17:08:31.009Z,100285.66
2023-07-17T17:11:33.730Z,100284.81
2023-07-17T17:14:36.290Z,100286.09
2023-07-17T17:17:39.173Z,100282.34
2023-07-17T17:20:41.617Z,100277.34
2023-07-17T17:23:44.375Z,100278.56
2023-07-17T17:26:46.833Z,100279.78
2023-07-17T17:29:49.416Z,100283.50
2023-07-17T17:32:51.894Z,100283.03
2023-07-17T17:35:56.125Z,100278.59
2023-07-17T17:38:59.593Z,100283.78
2023-07-17T17:42:03.743Z,100286.47
2023-07-17T17:45:08.486Z,100292.28
2023-07-17T17:48:11.811Z,100287.22
2023-07-17T17:51:14.266Z,100299.13
2023-07-17T17:54:16.941Z,100299.50
2023-07-17T17:57:19.346Z,100293.81
2023-07-17T18:00:22.220Z,100301.03
2023-07-17T18:03:25.424Z,100303.88
2023-07-17T18:06:28.406Z,100318.25
2023-07-17T18:09:30.745Z,100323.31
2023-07-17T18:12:33.247Z,100329.44
2023-07-17T18:15:35.687Z,100332.28
2023-07-17T18:18:38.489Z,100330.28
2023-07-17T18:21:40.835Z,100334.22
2023-07-17T18:24:43.766Z,100341.22
2023-07-17T18:27:46.163Z,100334.44
2023-07-17T18:30:48.886Z,100334.00
2023-07-17T18:33:53.315Z,100341.38
2023-07-17T18:36:57.295Z,100345.31
2023-07-17T18:39:59.794Z,100348.81
2023-07-17T18:43:02.704Z,100349.41
2023-07-17T18:46:06.143Z,100354.72
2023-07-17T18:49:09.695Z,100355.81
2023-07-17T18:52:12.147Z,100351.75
2023-07-17T18:55:14.797Z,100351.44
2023-07-17T18:58:17.140Z,100357.16
2023-07-17T19:01:20.104Z,100356.13
2023-07-17T19:04:23.944Z,100351.47
2023-07-17T19:07:28.591Z,100352.78
2023-07-17T19:10:31.048Z,100352.19
2023-07-17T19:13:33.665Z,100358.03
2023-07-17T19:16:36.466Z,100364.72
2023-07-17T19:19:48.708Z,100367.50
2023-07-17T19:22:56.056Z,100370.97
2023-07-17T19:26:02.605Z,100372.72
2023-07-17T19:29:06.062Z,100367.72
2023-07-17T19:32:09.275Z,100368.87
2023-07-17T19:35:14.647Z,100362.91
2023-07-17T19:38:17.479Z,100364.69
2023-07-17T19:41:27.737Z,100361.84
2023-07-17T19:44:30.844Z,100361.53
2023-07-17T19:47:35.858Z,100360.09
2023-07-17T19:50:39.031Z,100357.47
2023-07-17T19:53:41.629Z,100347.59
2023-07-17T19:56:44.164Z,100350.00
2023-07-17T19:59:46.507Z,100353.34
2023-07-17T20:02:49.295Z,100363.81
2023-07-17T20:05:52.594Z,100365.69
2023-07-17T20:08:58.268Z,100370.09
2023-07-17T20:12:03.110Z,100369.78
2023-07-17T20:15:08.993Z,100368.63
2023-07-17T20:18:11.748Z,100370.66
2023-07-17T20:21:14.227Z,100368.66
2023-07-17T20:24:17.113Z,100368.00
2023-07-17T20:27:19.408Z,100368.03
2023-07-17T20:30:21.960Z,100369.22
2023-07-17T20:33:25.398Z,100375.44
2023-07-17T20:36:28.151Z,100385.00
2023-07-17T20:39:30.589Z,100396.41
2023-07-17T20:42:48.384Z,100394.25
2023-07-17T20:45:54.137Z,100394.09
2023-07-17T20:48:57.198Z,100397.16
2023-07-17T20:51:59.570Z,100403.53
2023-07-17T20:55:02.210Z,100405.03
2023-07-17T20:58:04.797Z,100420.28
2023-07-17T21:01:16.741Z,100419.78
2023-07-17T21:04:19.284Z,100420.63
2023-07-17T21:07:21.813Z,100428.34
2023-07-17T21:10:24.043Z,100415.44
2023-07-17T21:13:26.889Z,100425.84
2023-07-17T21:16:29.140Z,100428.69
2023-07-17T21:19:31.833Z,100426.84
2023-07-17T21:22:34.235Z,100435.75
2023-07-17T21:25:37.655Z,100438.25
2023-07-17T21:28:58.685Z,100443.25
2023-07-17T21:32:01.350Z,100448.09
2023-07-17T21:35:04.844Z,100450.59
2023-07-17T21:38:07.941Z,100453.09
2023-07-17T21:41:10.247Z,100451.56
2023-07-17T21:44:12.993Z,100443.34
2023-07-17T21:47:15.371Z,100453.84
2023-07-17T21:50:18.035Z,100454.69
2023-07-17T21:53:20.460Z,100455.69
2023-07-17T21:56:23.003Z,100460.37
2023-07-17T21:59:25.281Z,100457.34
2023-07-17T22:02:27.943Z,100461.31
2023-07-17T22:05:30.685Z,100464.66
2023-07-17T22:08:33.117Z,100458.25
2023-07-17T22:11:35.806Z,100464.00
2023-07-17T22:14:38.361Z,100461.53
2023-07-17T22:17:42.859Z,100465.72
2023-07-17T22:20:45.314Z,100478.31
2023-07-17T22:23:48.116Z,100469.78
2023-07-17T22:26:50.433Z,100480.66
2023-07-17T22:29:54.701Z,100481.13
2023-07-17T22:32:57.187Z,100490.19
2023-07-17T22:35:59.826Z,100498.16
2023-07-17T22:39:02.078Z,100503.81
2023-07-17T22:42:05.179Z,100498.72
2023-07-17T22:45:07.671Z,100511.63
2023-07-17T22:48:10.425Z,100512.63
2023-07-17T22:51:12.869Z,100516.84
2023-07-17T22:54:15.526Z,100521.56
2023-07-17T22:57:18.509Z,100513.53
2023-07-17T23:00:21.416Z,100514.31
2023-07-17T23:03:23.961Z,100518.53
2023-07-17T23:06:26.832Z,100524.38
2023-07-17T23:09:29.292Z,100527.41
2023-07-17T23:12:32.642Z,100532.63
2023-07-17T23:15:35.558Z,100535.59
2023-07-17T23:18:38.314Z,100541.97
2023-07-17T23:21:40.708Z,100545.34
2023-07-17T23:24:43.765Z,100533.91
2023-07-17T23:27:46.210Z,100539.19
2023-07-17T23:30:48.695Z,100543.50
2023-07-17T23:33:51.003Z,100549.44
2023-07-17T23:36:53.711Z,100554.75
2023-07-17T23:40:01.050Z,100556.19
2023-07-17T23:43:03.893Z,100561.34
2023-07-17T23:46:06.323Z,100569.94
2023-07-17T23:49:09.920Z,100576.78
2023-07-17T23:52:12.280Z,100564.66
2023-07-17T23:55:16.698Z,100564.41
2023-07-17T23:58:19.307Z,100571.59
